Novoselenginsk, Russia
Current Conditions -  °F | °C
As of 3:30 PM on Sunday 26 Oct 2014 (Local Time) from UIUU Reporting Station
Few Clouds Few Clouds  
Wind Chill: 20°   Ceiling: Unl
Heat Index: 30°   Visibility: 6mi
Dew Point:   Wind: 13mph
Humidity: 40%   Direction: 80°E
Pressure: 30.33"   Gusts: NA
Location:  51.09°N, 106.63°E
Report Text: UIUU 260730Z 08006MPS 9999 FEW100 M01/M13 Q1027 NOSIG RMKQFE725/0967 26CLRD60
Loading
Personal Weather Stations






























Interactive Weather Map
Tropical Storm Tracking
New forecast layout! Learn more

10-Day Weather Forecast

Advertisements
Track Severe Weather on mobile